Aérodrome :
LOGIN :

S'inscrire | Disclaimer

   EN    FR    IT 

 










Légende :    VFR   VFR Marginal   IFR   IFR Intensif   IFR Très Intensif
Visi : 
Plafond : 
>= 8 km
>= 3000ft
5 à 8 km
1000 à 3000 ft
1500m à 5 km
500 à 1000 ft
800 à 1500m
200 à 500 ft
< 800m
< 200 ft
Symboles :   Orages  Brouillard  Fortes neiges  Fortes précipitations  Vent > 20 kt
SIGMETs :   Divers  Orages  Givrage  Turbulence  Onde Orograph.  Cendres Volcan.






- Altitude de l'aérodrome : 101 ft
- Code IATA : HAD


ESMT - Halmstad

DERNIER METAR :
  • 060850Z AUTO 25021KT 9999 FEW023/// SCT041/// BKN075/// 15/10 Q0998

METARs EXPIRÉS :
  • 060820Z AUTO 25022G32KT 9999 FEW022/// SCT028/// BKN064/// 15/10 Q0998
  • 060750Z 25020KT 9999 SCT023 BKN039 15/09 Q0998
  • 060720Z 25020KT 9999 FEW025 SCT052TCU BKN080 15/09 Q0998
  • 060650Z 25021KT 9999 SCT024 BKN040 BKN067 14/09 Q0998
  • 060620Z 25019KT 9999 FEW025 SCT034 BKN045 14/10 Q0998

Prévision TAF périmée.



MET'MAP, la Météo Aéronautique d'un coup d'oeil ! - Copyright ORBIFLY Décembre 2007 - Disclaimer

ORBIFLY MET'MAP TEAM :

Programmation & Développement : Alexandra Zaïnal
Sur une idée originale de : Baudouin d'Aumeries
Assistance à la programmation : Marc-Olivier Méhu
Soutien technique & logistique : Manuel Goepfert

Contact : metmap@orbifly.com




SOURCES & CREDITS :

   NOAA